Allison, North Carolina
Current Conditions -  °F | °C
As of 12:53 AM on Tuesday 21 Oct 2014 (Local Time) from KDAN Reporting Station
Broken Clouds Broken Clouds  
Wind Chill: 13°   Ceiling: 10000
Heat Index: 13°   Visibility: 10mi
Dew Point:   Wind: 5mph
Humidity: 77%   Direction: 210°SSW
Pressure: 29.96"   Gusts: NA
Location:  36.4355°N, 79.5464°W
Report Text: KDAN 210453Z AUTO 21004KT 10SM BKN100 13/09 A2996 RMK AO2 SLP136 T01330094 402110039
Loading
Personal Weather Stations






























Interactive Weather Map
Tropical Storm Tracking
New forecast layout! Learn more

10-Day Weather Forecast

Advertisements
Track Severe Weather on mobile